Stolt Shearwater — ZCRD9 — position and weather

sailwx.info

Track history (hours):
 
Tides and Currents Weather Stations Pressure Air Temp Water Temp Dewpoint Dewpoint Depression Visibility Wind Speed Wind Dir Waves Ship Positions

Stolt Shearwater

Last reported at 2014-Jul-31 23:33 UTC. Time now 2014-Jul-31 23:47 UTC.
Position N 51°45' E 003°11'.

Length 96 m; draft 5.1 m.

Type: Ship (hazmat cat C). MMSI: 319402000.

Date/timePositionNaut miles runAvg speedWind from/ knotsBaromVisibWave heightAir tempDewpointWater temp
2014-Jul-31 23:33N 51°45' E 003°11'10 9.6
2014-Jul-31 22:30N 51°38' E 003°21'1111.1
2014-Jul-31 21:33N 51°29' E 003°30'6 6.2
2014-Jul-31 20:33N 51°25' E 003°38'1211.8
2014-Jul-31 19:34N 51°24' E 003°57'9 8.8
2014-Jul-31 18:33N 51°24' E 004°11'9 9.0
2014-Jul-31 17:34N 51°17' E 004°20'0 0.0
2014-Jul-31 16:34N 51°17' E 004°20'0 0.2
2014-Jul-31 15:22N 51°17' E 004°20'0 0.0
2014-Jul-31 14:31N 51°17' E 004°20'0 0.0
2014-Jul-31 13:25N 51°17' E 004°20'0 0.0
2014-Jul-31 12:13N 51°17' E 004°20'0 0.0
2014-Jul-31 11:31N 51°17' E 004°20'0 0.0
2014-Jul-31 10:31N 51°17' E 004°20'0 0.0
2014-Jul-31 09:31N 51°17' E 004°20'0 0.0
2014-Jul-31 08:13N 51°17' E 004°20'0 0.0
2014-Jul-31 07:31N 51°17' E 004°20'0 0.0
2014-Jul-31 06:31N 51°17' E 004°20'0 0.0
2014-Jul-31 05:19N 51°17' E 004°20'0 0.0
2014-Jul-31 04:31N 51°17' E 004°20'0 0.0
2014-Jul-31 03:22N 51°17' E 004°20'0 0.0
2014-Jul-31 02:28N 51°17' E 004°20'0 0.0
2014-Jul-31 01:31N 51°17' E 004°20'0 0.0
2014-Jul-31 00:28N 51°17' E 004°20'0 0.0
2014-Jul-30 23:28N 51°17' E 004°20'0 0.0
2014-Jul-30 22:28N 51°17' E 004°20'0 0.0
2014-Jul-30 21:22N 51°17' E 004°20'4 2.5
2014-Jul-30 19:34N 51°21' E 004°17'0 0.0
2014-Jul-30 18:33N 51°21' E 004°17'0 0.1
2014-Jul-30 17:34N 51°21' E 004°17'3 3.1
2014-Jul-30 16:33N 51°22' E 004°13'7 7.1
2014-Jul-30 15:33N 51°24' E 004°02'8 8.0
2014-Jul-30 14:34N 51°21' E 003°50'1212.2
2014-Jul-30 13:33N 51°27' E 003°33'1211.4
2014-Jul-30 12:33N 51°36' E 003°22'9 8.9
2014-Jul-30 11:33N 51°43' E 003°13'76 8.5
2014-Jul-30 02:32N 52°44' E 001°59'8 8.5
2014-Jul-30 01:33N 52°49' E 001°48'9 9.3
2014-Jul-30 00:33N 52°55' E 001°37'1010.0
2014-Jul-29 23:33N 53°03' E 001°26'3510.6
2014-Jul-29 20:14N 53°26' E 000°42'710.5
2014-Jul-29 19:33N 53°30' E 000°32'1010.0
2014-Jul-29 18:34N 53°33' E 000°16'7 6.8
2014-Jul-29 17:33N 53°34' E 000°05'8 8.1
2014-Jul-29 16:33N 53°37' W 000°08'7 7.1
2014-Jul-29 15:33N 53°43' W 000°15'0 0.3
2014-Jul-29 14:24N 53°44' W 000°15'0 0.0
2014-Jul-29 13:24N 53°44' W 000°15'0 0.0
2014-Jul-29 12:24N 53°44' W 000°15'0 0.0
2014-Jul-29 10:30N 53°44' W 000°15'0 0.0
2014-Jul-29 09:30N 53°44' W 000°15'0 0.0
2014-Jul-29 08:30N 53°44' W 000°15'0 0.0
2014-Jul-29 07:30N 53°44' W 000°15'0 0.0
2014-Jul-29 06:18N 53°44' W 000°15'0 0.0
2014-Jul-29 05:33N 53°44' W 000°15'0 0.0
2014-Jul-29 04:30N 53°44' W 000°15'0 0.0
2014-Jul-29 03:33N 53°44' W 000°15'0 0.0
2014-Jul-29 02:24N 53°44' W 000°15'0 0.0
2014-Jul-29 01:33N 53°44' W 000°15'0 0.0
2014-Jul-29 00:24N 53°44' W 000°15'0 0.0
2014-Jul-28 23:24N 53°44' W 000°15'0 0.0
2014-Jul-28 22:27N 53°44' W 000°15'0 0.0
2014-Jul-28 21:24N 53°44' W 000°15'0 0.0
2014-Jul-28 20:18N 53°44' W 000°15'0 0.0
2014-Jul-28 19:27N 53°44' W 000°15'0 0.0
2014-Jul-28 18:30N 53°44' W 000°15'0 0.0
2014-Jul-28 17:15N 53°44' W 000°15'0 0.0
2014-Jul-28 16:33N 53°44' W 000°15'1 0.8
2014-Jul-28 15:33N 53°43' W 000°14'10 9.9
2014-Jul-28 14:33N 53°36' W 000°02'1010.1
2014-Jul-28 13:33N 53°33' E 000°14'6 5.9
2014-Jul-28 12:29N 53°36' E 000°23'0 0.0
2014-Jul-28 11:32N 53°36' E 000°23'0 0.0
2014-Jul-28 10:17N 53°36' E 000°23'0 0.0
2014-Jul-28 09:29N 53°36' E 000°23'0 0.1
2014-Jul-28 08:17N 53°36' E 000°24'0 0.1
2014-Jul-28 07:32N 53°36' E 000°23'0 0.0
2014-Jul-28 06:17N 53°36' E 000°23'0 0.0
2014-Jul-28 05:08N 53°36' E 000°23'0 0.0
2014-Jul-28 04:26N 53°36' E 000°23'0 0.0
2014-Jul-28 03:11N 53°36' E 000°23'0 0.1
2014-Jul-28 02:23N 53°36' E 000°23'0 0.0
2014-Jul-28 01:29N 53°36' E 000°24'0 0.1
2014-Jul-28 00:29N 53°36' E 000°23'0 0.0
2014-Jul-27 23:29N 53°36' E 000°23'0 0.0
2014-Jul-27 22:32N 53°36' E 000°23'0 0.0
2014-Jul-27 21:32N 53°36' E 000°23'0 0.0
2014-Jul-27 20:32N 53°36' E 000°23'0 0.0
2014-Jul-27 19:20N 53°36' E 000°23'0 0.1
2014-Jul-27 18:32N 53°36' E 000°23'0 0.0
2014-Jul-27 17:17N 53°36' E 000°24'0 0.0
2014-Jul-27 16:23N 53°36' E 000°23'0 0.0
2014-Jul-27 15:20N 53°36' E 000°23'0 0.1
2014-Jul-27 14:20N 53°36' E 000°23'0 0.1
2014-Jul-27 13:29N 53°36' E 000°23'0 0.0
2014-Jul-27 11:29N 53°36' E 000°23'0 0.0
2014-Jul-27 10:29N 53°36' E 000°23'0 0.0
2014-Jul-27 09:26N 53°36' E 000°23'0 0.0
2014-Jul-27 08:32N 53°36' E 000°23'0 0.1
2014-Jul-27 07:32N 53°36' E 000°24'0 0.0
2014-Jul-27 06:32N 53°36' E 000°23'0 0.0
2014-Jul-27 05:05N 53°36' E 000°23'0 0.0
2014-Jul-27 04:32N 53°36' E 000°23'0 0.0
2014-Jul-27 03:32N 53°36' E 000°23'0 0.0
2014-Jul-27 02:32N 53°36' E 000°23'0 0.1
2014-Jul-27 01:20N 53°36' E 000°23'0 0.1
2014-Jul-27 00:26N 53°36' E 000°23'0 0.0
2014-Jul-26 23:32N 53°36' E 000°23'0 0.0
2014-Jul-26 22:32N 53°36' E 000°23'0 0.0
2014-Jul-26 21:29N 53°36' E 000°23'2 1.7
2014-Jul-26 20:33N 53°37' E 000°25'10 9.8
2014-Jul-26 19:33N 53°44' E 000°37'1110.5
2014-Jul-26 18:33N 53°50' E 000°52'1010.1
2014-Jul-26 17:33N 53°53' E 001°08'1010.0
2014-Jul-26 16:33N 53°54' E 001°25'1010.4
2014-Jul-26 15:33N 53°55' E 001°43'1110.7
2014-Jul-26 14:33N 53°56' E 002°01'1111.3
2014-Jul-26 13:33N 53°57' E 002°20'1111.4
2014-Jul-26 12:33N 53°58' E 002°39'1111.3
2014-Jul-26 11:33N 53°59' E 002°58'50 9.8
2014-Jul-26 06:27N 54°04' E 004°23'12 9.0
2014-Jul-26 05:09N 54°04' E 004°43'610.4
2014-Jul-26 04:34N 54°03' E 004°53'1110.8
2014-Jul-26 03:33N 53°58' E 005°10'1111.4
2014-Jul-26 02:34N 53°54' E 005°27'1211.9
2014-Jul-26 01:33N 53°49' E 005°46'1010.4
2014-Jul-26 00:33N 53°43' E 006°00'10 9.9
2014-Jul-25 23:32N 53°38' E 006°15'1111.5
2014-Jul-25 22:33N 53°36' E 006°34'1211.9
2014-Jul-25 21:33N 53°29' E 006°50'1010.4
2014-Jul-25 20:34N 53°20' E 006°60'2 1.5
2014-Jul-25 19:33N 53°19' E 006°58'0 0.0
2014-Jul-25 18:33N 53°19' E 006°58'0 0.0
2014-Jul-25 17:34N 53°19' E 006°58'0 0.0
2014-Jul-25 16:30N 53°19' E 006°58'0 0.0
2014-Jul-25 15:34N 53°19' E 006°58'0 0.0
2014-Jul-25 14:34N 53°19' E 006°58'0 0.0
2014-Jul-25 13:34N 53°19' E 006°58'0 0.0
2014-Jul-25 12:34N 53°19' E 006°58'0 0.0
2014-Jul-25 11:34N 53°19' E 006°58'0 0.0
2014-Jul-25 10:34N 53°19' E 006°58'0 0.0
2014-Jul-25 09:31N 53°19' E 006°58'0 0.0
2014-Jul-25 08:31N 53°19' E 006°58'0 0.0
2014-Jul-25 07:34N 53°19' E 006°58'4 4.4
2014-Jul-25 06:33N 53°24' E 006°57'1313.3
2014-Jul-25 05:33N 53°33' E 006°42'1311.7
2014-Jul-25 04:29N 53°37' E 006°22'8 8.2
2014-Jul-25 03:32N 53°39' E 006°09'7 7.7
2014-Jul-25 02:34N 53°39' E 005°56'8 7.7
2014-Jul-25 01:34N 53°37' E 005°44'8 7.9
2014-Jul-25 00:34N 53°34' E 005°31'8 7.9
2014-Jul-24 23:34N 53°32' E 005°19'8 7.9
2014-Jul-24 22:34N 53°29' E 005°06'8 8.0
2014-Jul-24 21:34N 53°27' E 004°54'8 8.0
2014-Jul-24 20:34N 53°23' E 004°42'9 8.7
2014-Jul-24 19:33N 53°15' E 004°35'11 9.2
2014-Jul-24 18:23N 53°06' E 004°26'8 9.6
2014-Jul-24 17:33N 52°59' E 004°20'10 9.9
2014-Jul-24 16:34N 52°50' E 004°13'10 9.8
2014-Jul-24 15:33N 52°43' E 004°02'10 9.8
2014-Jul-24 14:34N 52°37' E 003°48'10 9.8
2014-Jul-24 13:33N 52°30' E 003°38'1010.5
2014-Jul-24 12:33N 52°20' E 003°32'1110.7
2014-Jul-24 11:33N 52°10' E 003°27'1010.1
2014-Jul-24 10:34N 51°60' E 003°24'9 9.2
2014-Jul-24 09:33N 51°51' E 003°20'8 8.3
2014-Jul-24 08:33N 51°43' E 003°15'9 9.5
2014-Jul-24 07:33N 51°35' E 003°24'9 9.1
2014-Jul-24 06:33N 51°27' E 003°31'9 9.0
2014-Jul-24 05:33N 51°23' E 003°44'1110.7
2014-Jul-24 04:33N 51°26' E 003°60'10 9.8
2014-Jul-24 03:34N 51°22' E 004°14'6 6.4
2014-Jul-24 02:34N 51°17' E 004°20'0 0.2
2014-Jul-24 01:28N 51°17' E 004°20'0 0.0
2014-Jul-24 00:31N 51°17' E 004°20'0 0.0
2014-Jul-23 23:31N 51°17' E 004°20'0 0.0
2014-Jul-23 22:31N 51°17' E 004°20'0 0.0
2014-Jul-23 21:31N 51°17' E 004°20'0 0.0
2014-Jul-23 20:28N 51°17' E 004°20'0 0.0
2014-Jul-23 19:31N 51°17' E 004°20'0 0.0
2014-Jul-23 18:31N 51°17' E 004°20'0 0.0
2014-Jul-23 17:31N 51°17' E 004°20'0 0.0
2014-Jul-23 16:31N 51°17' E 004°20'0 0.0
2014-Jul-23 15:31N 51°17' E 004°20'0 0.0
2014-Jul-23 14:28N 51°17' E 004°20'0 0.0
2014-Jul-23 13:31N 51°17' E 004°20'0 0.0
2014-Jul-23 12:31N 51°17' E 004°20'0 0.0
2014-Jul-23 11:31N 51°17' E 004°20'0 0.0
2014-Jul-23 10:31N 51°17' E 004°20'0 0.0
2014-Jul-23 09:34N 51°17' E 004°20'0 0.3
2014-Jul-23 08:34N 51°17' E 004°20'8 8.5
2014-Jul-23 07:33N 51°24' E 004°12'9 8.5
2014-Jul-23 06:34N 51°26' E 003°59'9 9.1
2014-Jul-23 05:34N 51°21' E 003°46'8 8.4
2014-Jul-23 04:33N 51°26' E 003°35'1010.0
2014-Jul-23 03:33N 51°34' E 003°25'1110.2
2014-Jul-23 02:31N 51°43' E 003°16'7 7.6
2014-Jul-23 01:33N 51°46' E 003°05'8 6.6
2014-Jul-23 00:21N 51°48' E 002°53'5 6.8
2014-Jul-22 23:33N 51°53' E 002°48'9 6.8
2014-Jul-22 22:12N 52°00' E 002°40'5 7.4
2014-Jul-22 21:33N 52°04' E 002°35'8 8.0
2014-Jul-22 20:33N 52°10' E 002°27'19 9.0
2014-Jul-22 18:24N 52°28' E 002°13'2010.0
2014-Jul-22 16:23N 52°46' E 001°58'810.0
2014-Jul-22 15:33N 52°50' E 001°46'1010.1
2014-Jul-22 14:33N 52°57' E 001°35'9 9.2
2014-Jul-22 13:33N 53°04' E 001°24'9 8.7
2014-Jul-22 12:32N 53°10' E 001°14'27 8.6
2014-Jul-22 09:26N 53°27' E 000°39'7 8.6
2014-Jul-22 08:33N 53°31' E 000°29'9 8.8
2014-Jul-22 07:33N 53°33' E 000°14'1010.2
2014-Jul-22 06:34N 53°36' W 000°02'10 9.6
2014-Jul-22 05:33N 53°42' W 000°14'2 1.2
2014-Jul-22 04:19N 53°44' W 000°15'0 0.0
2014-Jul-22 03:07N 53°44' W 000°15'0 0.0
2014-Jul-22 02:19N 53°44' W 000°15'0 0.0
2014-Jul-22 01:11N 53°44' W 000°15'0 0.0
2014-Jul-22 00:22N 53°44' W 000°15'  
Track history (hours):
 
Tides and Currents Weather Stations Pressure Air Temp Water Temp Dewpoint Dewpoint Depression Visibility Wind Speed Wind Dir Waves Ship Positions

Stolt Shearwater

Last reported at 2014-Jul-31 23:33 UTC. Time now 2014-Jul-31 23:47 UTC.
Position N 51°45' E 003°11'.

Length 96 m; draft 5.1 m.

Type: Ship (hazmat cat C). MMSI: 319402000.

Date/timePositionNaut miles runAvg speedWind from/ knotsBaromVisibWave heightAir tempDewpointWater temp
2014-Jul-31 23:33N 51°45' E 003°11'10 9.6
2014-Jul-31 22:30N 51°38' E 003°21'1111.1
2014-Jul-31 21:33N 51°29' E 003°30'6 6.2
2014-Jul-31 20:33N 51°25' E 003°38'1211.8
2014-Jul-31 19:34N 51°24' E 003°57'9 8.8
2014-Jul-31 18:33N 51°24' E 004°11'9 9.0
2014-Jul-31 17:34N 51°17' E 004°20'0 0.0
2014-Jul-31 16:34N 51°17' E 004°20'0 0.2
2014-Jul-31 15:22N 51°17' E 004°20'0 0.0
2014-Jul-31 14:31N 51°17' E 004°20'0 0.0
2014-Jul-31 13:25N 51°17' E 004°20'0 0.0
2014-Jul-31 12:13N 51°17' E 004°20'0 0.0
2014-Jul-31 11:31N 51°17' E 004°20'0 0.0
2014-Jul-31 10:31N 51°17' E 004°20'0 0.0
2014-Jul-31 09:31N 51°17' E 004°20'0 0.0
2014-Jul-31 08:13N 51°17' E 004°20'0 0.0
2014-Jul-31 07:31N 51°17' E 004°20'0 0.0
2014-Jul-31 06:31N 51°17' E 004°20'0 0.0
2014-Jul-31 05:19N 51°17' E 004°20'0 0.0
2014-Jul-31 04:31N 51°17' E 004°20'0 0.0
2014-Jul-31 03:22N 51°17' E 004°20'0 0.0
2014-Jul-31 02:28N 51°17' E 004°20'0 0.0
2014-Jul-31 01:31N 51°17' E 004°20'0 0.0
2014-Jul-31 00:28N 51°17' E 004°20'0 0.0
2014-Jul-30 23:28N 51°17' E 004°20'0 0.0
2014-Jul-30 22:28N 51°17' E 004°20'0 0.0
2014-Jul-30 21:22N 51°17' E 004°20'4 2.5
2014-Jul-30 19:34N 51°21' E 004°17'0 0.0
2014-Jul-30 18:33N 51°21' E 004°17'0 0.1
2014-Jul-30 17:34N 51°21' E 004°17'3 3.1
2014-Jul-30 16:33N 51°22' E 004°13'7 7.1
2014-Jul-30 15:33N 51°24' E 004°02'8 8.0
2014-Jul-30 14:34N 51°21' E 003°50'1212.2
2014-Jul-30 13:33N 51°27' E 003°33'1211.4
2014-Jul-30 12:33N 51°36' E 003°22'9 8.9
2014-Jul-30 11:33N 51°43' E 003°13'76 8.5
2014-Jul-30 02:32N 52°44' E 001°59'8 8.5
2014-Jul-30 01:33N 52°49' E 001°48'9 9.3
2014-Jul-30 00:33N 52°55' E 001°37'1010.0
2014-Jul-29 23:33N 53°03' E 001°26'3510.6
2014-Jul-29 20:14N 53°26' E 000°42'710.5
2014-Jul-29 19:33N 53°30' E 000°32'1010.0
2014-Jul-29 18:34N 53°33' E 000°16'7 6.8
2014-Jul-29 17:33N 53°34' E 000°05'8 8.1
2014-Jul-29 16:33N 53°37' W 000°08'7 7.1
2014-Jul-29 15:33N 53°43' W 000°15'0 0.3
2014-Jul-29 14:24N 53°44' W 000°15'0 0.0
2014-Jul-29 13:24N 53°44' W 000°15'0 0.0
2014-Jul-29 12:24N 53°44' W 000°15'0 0.0
2014-Jul-29 10:30N 53°44' W 000°15'0 0.0
2014-Jul-29 09:30N 53°44' W 000°15'0 0.0
2014-Jul-29 08:30N 53°44' W 000°15'0 0.0
2014-Jul-29 07:30N 53°44' W 000°15'0 0.0
2014-Jul-29 06:18N 53°44' W 000°15'0 0.0
2014-Jul-29 05:33N 53°44' W 000°15'0 0.0
2014-Jul-29 04:30N 53°44' W 000°15'0 0.0
2014-Jul-29 03:33N 53°44' W 000°15'0 0.0
2014-Jul-29 02:24N 53°44' W 000°15'0 0.0
2014-Jul-29 01:33N 53°44' W 000°15'0 0.0
2014-Jul-29 00:24N 53°44' W 000°15'0 0.0
2014-Jul-28 23:24N 53°44' W 000°15'0 0.0
2014-Jul-28 22:27N 53°44' W 000°15'0 0.0
2014-Jul-28 21:24N 53°44' W 000°15'0 0.0
2014-Jul-28 20:18N 53°44' W 000°15'0 0.0
2014-Jul-28 19:27N 53°44' W 000°15'0 0.0
2014-Jul-28 18:30N 53°44' W 000°15'0 0.0
2014-Jul-28 17:15N 53°44' W 000°15'0 0.0
2014-Jul-28 16:33N 53°44' W 000°15'1 0.8
2014-Jul-28 15:33N 53°43' W 000°14'10 9.9
2014-Jul-28 14:33N 53°36' W 000°02'1010.1
2014-Jul-28 13:33N 53°33' E 000°14'6 5.9
2014-Jul-28 12:29N 53°36' E 000°23'0 0.0
2014-Jul-28 11:32N 53°36' E 000°23'0 0.0
2014-Jul-28 10:17N 53°36' E 000°23'0 0.0
2014-Jul-28 09:29N 53°36' E 000°23'0 0.1
2014-Jul-28 08:17N 53°36' E 000°24'0 0.1
2014-Jul-28 07:32N 53°36' E 000°23'0 0.0
2014-Jul-28 06:17N 53°36' E 000°23'0 0.0
2014-Jul-28 05:08N 53°36' E 000°23'0 0.0
2014-Jul-28 04:26N 53°36' E 000°23'0 0.0
2014-Jul-28 03:11N 53°36' E 000°23'0 0.1
2014-Jul-28 02:23N 53°36' E 000°23'0 0.0
2014-Jul-28 01:29N 53°36' E 000°24'0 0.1
2014-Jul-28 00:29N 53°36' E 000°23'0 0.0
2014-Jul-27 23:29N 53°36' E 000°23'0 0.0
2014-Jul-27 22:32N 53°36' E 000°23'0 0.0
2014-Jul-27 21:32N 53°36' E 000°23'0 0.0
2014-Jul-27 20:32N 53°36' E 000°23'0 0.0
2014-Jul-27 19:20N 53°36' E 000°23'0 0.1
2014-Jul-27 18:32N 53°36' E 000°23'0 0.0
2014-Jul-27 17:17N 53°36' E 000°24'0 0.0
2014-Jul-27 16:23N 53°36' E 000°23'0 0.0
2014-Jul-27 15:20N 53°36' E 000°23'0 0.1
2014-Jul-27 14:20N 53°36' E 000°23'0 0.1
2014-Jul-27 13:29N 53°36' E 000°23'0 0.0
2014-Jul-27 11:29N 53°36' E 000°23'0 0.0
2014-Jul-27 10:29N 53°36' E 000°23'0 0.0
2014-Jul-27 09:26N 53°36' E 000°23'0 0.0
2014-Jul-27 08:32N 53°36' E 000°23'0 0.1
2014-Jul-27 07:32N 53°36' E 000°24'0 0.0
2014-Jul-27 06:32N 53°36' E 000°23'0 0.0
2014-Jul-27 05:05N 53°36' E 000°23'0 0.0
2014-Jul-27 04:32N 53°36' E 000°23'0 0.0
2014-Jul-27 03:32N 53°36' E 000°23'0 0.0
2014-Jul-27 02:32N 53°36' E 000°23'0 0.1
2014-Jul-27 01:20N 53°36' E 000°23'0 0.1
2014-Jul-27 00:26N 53°36' E 000°23'0 0.0
2014-Jul-26 23:32N 53°36' E 000°23'0 0.0
2014-Jul-26 22:32N 53°36' E 000°23'0 0.0
2014-Jul-26 21:29N 53°36' E 000°23'2 1.7
2014-Jul-26 20:33N 53°37' E 000°25'10 9.8
2014-Jul-26 19:33N 53°44' E 000°37'1110.5
2014-Jul-26 18:33N 53°50' E 000°52'1010.1
2014-Jul-26 17:33N 53°53' E 001°08'1010.0
2014-Jul-26 16:33N 53°54' E 001°25'1010.4
2014-Jul-26 15:33N 53°55' E 001°43'1110.7
2014-Jul-26 14:33N 53°56' E 002°01'1111.3
2014-Jul-26 13:33N 53°57' E 002°20'1111.4
2014-Jul-26 12:33N 53°58' E 002°39'1111.3
2014-Jul-26 11:33N 53°59' E 002°58'50 9.8
2014-Jul-26 06:27N 54°04' E 004°23'12 9.0
2014-Jul-26 05:09N 54°04' E 004°43'610.4
2014-Jul-26 04:34N 54°03' E 004°53'1110.8
2014-Jul-26 03:33N 53°58' E 005°10'1111.4
2014-Jul-26 02:34N 53°54' E 005°27'1211.9
2014-Jul-26 01:33N 53°49' E 005°46'1010.4
2014-Jul-26 00:33N 53°43' E 006°00'10 9.9
2014-Jul-25 23:32N 53°38' E 006°15'1111.5
2014-Jul-25 22:33N 53°36' E 006°34'1211.9
2014-Jul-25 21:33N 53°29' E 006°50'1010.4
2014-Jul-25 20:34N 53°20' E 006°60'2 1.5
2014-Jul-25 19:33N 53°19' E 006°58'0 0.0
2014-Jul-25 18:33N 53°19' E 006°58'0 0.0
2014-Jul-25 17:34N 53°19' E 006°58'0 0.0
2014-Jul-25 16:30N 53°19' E 006°58'0 0.0
2014-Jul-25 15:34N 53°19' E 006°58'0 0.0
2014-Jul-25 14:34N 53°19' E 006°58'0 0.0
2014-Jul-25 13:34N 53°19' E 006°58'0 0.0
2014-Jul-25 12:34N 53°19' E 006°58'0 0.0
2014-Jul-25 11:34N 53°19' E 006°58'0 0.0
2014-Jul-25 10:34N 53°19' E 006°58'0 0.0
2014-Jul-25 09:31N 53°19' E 006°58'0 0.0
2014-Jul-25 08:31N 53°19' E 006°58'0 0.0
2014-Jul-25 07:34N 53°19' E 006°58'4 4.4
2014-Jul-25 06:33N 53°24' E 006°57'1313.3
2014-Jul-25 05:33N 53°33' E 006°42'1311.7
2014-Jul-25 04:29N 53°37' E 006°22'8 8.2
2014-Jul-25 03:32N 53°39' E 006°09'7 7.7
2014-Jul-25 02:34N 53°39' E 005°56'8 7.7
2014-Jul-25 01:34N 53°37' E 005°44'8 7.9
2014-Jul-25 00:34N 53°34' E 005°31'8 7.9
2014-Jul-24 23:34N 53°32' E 005°19'8 7.9
2014-Jul-24 22:34N 53°29' E 005°06'8 8.0
2014-Jul-24 21:34N 53°27' E 004°54'8 8.0
2014-Jul-24 20:34N 53°23' E 004°42'9 8.7
2014-Jul-24 19:33N 53°15' E 004°35'11 9.2
2014-Jul-24 18:23N 53°06' E 004°26'8 9.6
2014-Jul-24 17:33N 52°59' E 004°20'10 9.9
2014-Jul-24 16:34N 52°50' E 004°13'10 9.8
2014-Jul-24 15:33N 52°43' E 004°02'10 9.8
2014-Jul-24 14:34N 52°37' E 003°48'10 9.8
2014-Jul-24 13:33N 52°30' E 003°38'1010.5
2014-Jul-24 12:33N 52°20' E 003°32'1110.7
2014-Jul-24 11:33N 52°10' E 003°27'1010.1
2014-Jul-24 10:34N 51°60' E 003°24'9 9.2
2014-Jul-24 09:33N 51°51' E 003°20'8 8.3
2014-Jul-24 08:33N 51°43' E 003°15'9 9.5
2014-Jul-24 07:33N 51°35' E 003°24'9 9.1
2014-Jul-24 06:33N 51°27' E 003°31'9 9.0
2014-Jul-24 05:33N 51°23' E 003°44'1110.7
2014-Jul-24 04:33N 51°26' E 003°60'10 9.8
2014-Jul-24 03:34N 51°22' E 004°14'6 6.4
2014-Jul-24 02:34N 51°17' E 004°20'0 0.2
2014-Jul-24 01:28N 51°17' E 004°20'0 0.0
2014-Jul-24 00:31N 51°17' E 004°20'0 0.0
2014-Jul-23 23:31N 51°17' E 004°20'0 0.0
2014-Jul-23 22:31N 51°17' E 004°20'0 0.0
2014-Jul-23 21:31N 51°17' E 004°20'0 0.0
2014-Jul-23 20:28N 51°17' E 004°20'0 0.0
2014-Jul-23 19:31N 51°17' E 004°20'0 0.0
2014-Jul-23 18:31N 51°17' E 004°20'0 0.0
2014-Jul-23 17:31N 51°17' E 004°20'0 0.0
2014-Jul-23 16:31N 51°17' E 004°20'0 0.0
2014-Jul-23 15:31N 51°17' E 004°20'0 0.0
2014-Jul-23 14:28N 51°17' E 004°20'0 0.0
2014-Jul-23 13:31N 51°17' E 004°20'0 0.0
2014-Jul-23 12:31N 51°17' E 004°20'0 0.0
2014-Jul-23 11:31N 51°17' E 004°20'0 0.0
2014-Jul-23 10:31N 51°17' E 004°20'0 0.0
2014-Jul-23 09:34N 51°17' E 004°20'0 0.3
2014-Jul-23 08:34N 51°17' E 004°20'8 8.5
2014-Jul-23 07:33N 51°24' E 004°12'9 8.5
2014-Jul-23 06:34N 51°26' E 003°59'9 9.1
2014-Jul-23 05:34N 51°21' E 003°46'8 8.4
2014-Jul-23 04:33N 51°26' E 003°35'1010.0
2014-Jul-23 03:33N 51°34' E 003°25'1110.2
2014-Jul-23 02:31N 51°43' E 003°16'7 7.6
2014-Jul-23 01:33N 51°46' E 003°05'8 6.6
2014-Jul-23 00:21N 51°48' E 002°53'5 6.8
2014-Jul-22 23:33N 51°53' E 002°48'9 6.8
2014-Jul-22 22:12N 52°00' E 002°40'5 7.4
2014-Jul-22 21:33N 52°04' E 002°35'8 8.0
2014-Jul-22 20:33N 52°10' E 002°27'19 9.0
2014-Jul-22 18:24N 52°28' E 002°13'2010.0
2014-Jul-22 16:23N 52°46' E 001°58'810.0
2014-Jul-22 15:33N 52°50' E 001°46'1010.1
2014-Jul-22 14:33N 52°57' E 001°35'9 9.2
2014-Jul-22 13:33N 53°04' E 001°24'9 8.7
2014-Jul-22 12:32N 53°10' E 001°14'27 8.6
2014-Jul-22 09:26N 53°27' E 000°39'7 8.6
2014-Jul-22 08:33N 53°31' E 000°29'9 8.8
2014-Jul-22 07:33N 53°33' E 000°14'1010.2
2014-Jul-22 06:34N 53°36' W 000°02'10 9.6
2014-Jul-22 05:33N 53°42' W 000°14'2 1.2
2014-Jul-22 04:19N 53°44' W 000°15'0 0.0
2014-Jul-22 03:07N 53°44' W 000°15'0 0.0
2014-Jul-22 02:19N 53°44' W 000°15'0 0.0
2014-Jul-22 01:11N 53°44' W 000°15'0 0.0
2014-Jul-22 00:22N 53°44' W 000°15'  

Dump ship's entire track history